Terminal Aerodrome Forecast
Issued by NWS Fort Wayne, IN

Home | Current Version | Previous Version | Graphics & Text | Print | Product List | Glossary On
Versions: 1 2 3 4 5 6 7 8 9 10 11 12 13 14
000
FTUS43 KIWX 311700
TAFFWA
TAF
KFWA 311720Z 3118/0118 32016G24KT P6SM SCT025 BKN040
      TEMPO 3118/3120 BKN025
     FM312200 32012KT P6SM SCT030
     FM010200 23004KT P6SM SCT250=

USA.gov is the U.S. government's official web portal to all federal, state and local government web resources and services.